Time;durP1;ratioP1;P1;durP2;ratioP2;P2;SDS_P1;SDS_P2;PMS_P1;PMS_P2;Temp;Humidity;BMP_temperature;BMP_pressure;BME280_temperature;BME280_humidity;BME280_pressure;Samples;Min_cycle;Max_cycle;Signal;HPM_P1;HPM_P2
2024/04/13 00:00:53;;;;;;;8.02;4.15;;;8.60;99.90;;;;;;5412647;26;19996;-82
2024/04/13 00:03:19;;;;;;;5.80;3.85;;;8.60;99.90;;;;;;5412023;26;20003;-82
2024/04/13 00:05:44;;;;;;;6.22;4.63;;;8.50;99.90;;;;;;5448510;26;20048;-83
2024/04/13 00:08:10;;;;;;;9.48;5.60;;;8.60;99.90;;;;;;5449820;26;20448;-83
2024/04/13 00:10:36;;;;;;;14.25;6.90;;;8.60;99.90;;;;;;5449507;26;20014;-83
2024/04/13 00:13:02;;;;;;;10.45;6.13;;;8.50;99.90;;;;;;5438150;26;20000;-83
2024/04/13 00:15:30;;;;;;;10.23;6.47;;;8.60;99.90;;;;;;5435317;26;20356;-83
2024/04/13 00:17:57;;;;;;;7.22;5.18;;;8.70;99.90;;;;;;5421836;26;19995;-83
2024/04/13 00:20:23;;;;;;;7.70;4.85;;;8.80;99.90;;;;;;5424662;26;20010;-83
2024/04/13 00:22:49;;;;;;;11.57;5.15;;;8.90;99.90;;;;;;5450111;26;20760;-83
2024/04/13 00:25:14;;;;;;;11.07;5.10;;;9.00;99.90;;;;;;5449570;26;19991;-83
2024/04/13 00:27:40;;;;;;;7.93;4.90;;;9.00;99.90;;;;;;5449301;26;20002;-83
2024/04/13 00:30:09;;;;;;;9.45;5.00;;;9.00;99.90;;;;;;5448801;26;19998;-84
2024/04/13 00:32:35;;;;;;;9.43;4.50;;;9.10;99.90;;;;;;5449717;26;20006;-85
2024/04/13 00:35:04;;;;;;;5.53;4.13;;;9.10;99.90;;;;;;5443168;26;20031;-82
2024/04/13 00:37:30;;;;;;;9.00;4.25;;;9.00;99.90;;;;;;5456079;26;20010;-83
2024/04/13 00:39:56;;;;;;;11.85;4.88;;;8.80;99.90;;;;;;5475411;26;20036;-84
2024/04/13 00:42:21;;;;;;;6.93;4.65;;;8.80;99.90;;;;;;5443256;26;20007;-84
2024/04/13 00:45:01;;;;;;;10.50;4.90;;;8.80;99.90;;;;;;5439380;26;20127;-83
2024/04/13 00:47:27;;;;;;;11.43;5.22;;;8.80;99.90;;;;;;5453388;26;20030;-83
2024/04/13 00:49:55;;;;;;;9.02;4.80;;;8.90;99.90;;;;;;5428344;26;20013;-83
2024/04/13 00:52:24;;;;;;;5.50;4.35;;;8.90;99.90;;;;;;5445510;26;20017;-83
2024/04/13 00:54:55;;;;;;;5.68;3.70;;;8.70;99.90;;;;;;5450686;26;20003;-82
2024/04/13 00:57:22;;;;;;;7.80;4.10;;;8.40;99.90;;;;;;5435825;26;20010;-82
2024/04/13 00:59:50;;;;;;;6.70;3.88;;;8.30;99.90;;;;;;5448527;26;20035;-83
2024/04/13 01:02:18;;;;;;;5.07;3.78;;;8.10;99.90;;;;;;5447771;26;20411;-83
2024/04/13 01:04:48;;;;;;;9.55;5.13;;;8.10;99.90;;;;;;5448403;26;20006;-83
2024/04/13 01:07:18;;;;;;;6.68;5.13;;;8.10;99.90;;;;;;5424099;26;20037;-84
2024/04/13 01:09:45;;;;;;;5.47;4.32;;;8.10;99.90;;;;;;5378255;26;19997;-83
2024/04/13 01:12:14;;;;;;;10.88;5.03;;;8.00;99.90;;;;;;5447680;26;20075;-83
2024/04/13 01:14:41;;;;;;;6.63;4.57;;;8.00;99.90;;;;;;5448231;26;19999;-83
2024/04/13 01:17:07;;;;;;;6.80;3.85;;;8.00;99.90;;;;;;5421280;26;20616;-83
2024/04/13 01:19:33;;;;;;;24.52;3.22;;;8.00;99.90;;;;;;5415471;26;19999;-83
2024/04/13 01:22:00;;;;;;;6.57;3.42;;;8.00;99.90;;;;;;5411665;26;20004;-82
2024/04/13 01:24:26;;;;;;;4.45;3.33;;;8.00;99.90;;;;;;5407714;26;19999;-82
2024/04/13 01:26:52;;;;;;;5.78;2.90;;;7.90;99.90;;;;;;5411248;26;20460;-83
2024/04/13 01:29:18;;;;;;;4.80;3.67;;;7.90;99.90;;;;;;5411313;26;20003;-84
2024/04/13 01:31:44;;;;;;;7.90;3.85;;;7.70;99.90;;;;;;5431929;26;19999;-83
2024/04/13 01:34:10;;;;;;;5.95;4.05;;;7.70;99.90;;;;;;5446751;26;20027;-83
2024/04/13 01:36:40;;;;;;;8.48;4.63;;;8.00;99.90;;;;;;5447793;26;20011;-83
2024/04/13 01:39:08;;;;;;;8.52;4.28;;;8.10;99.90;;;;;;5447652;26;20002;-83
2024/04/13 01:41:46;;;;;;;21.13;7.47;;;8.20;99.90;;;;;;5438450;26;19994;-83
2024/04/13 01:44:12;;;;;;;11.30;4.63;;;8.20;99.90;;;;;;5447509;26;20003;-83
2024/04/13 01:46:38;;;;;;;11.65;5.43;;;8.30;99.90;;;;;;5446891;26;20448;-83
2024/04/13 01:49:05;;;;;;;6.05;4.68;;;8.30;99.90;;;;;;5446983;26;20009;-83
2024/04/13 01:51:31;;;;;;;6.55;4.10;;;8.10;99.90;;;;;;5448171;26;20071;-82
2024/04/13 01:53:57;;;;;;;5.95;3.45;;;8.00;99.90;;;;;;5447620;26;20014;-83
2024/04/13 01:56:22;;;;;;;7.18;3.75;;;7.80;99.90;;;;;;5434085;26;19991;-84
2024/04/13 01:58:48;;;;;;;5.10;3.88;;;7.80;99.90;;;;;;5448136;26;19994;-84
2024/04/13 02:01:14;;;;;;;6.38;3.92;;;7.70;99.90;;;;;;5446922;26;20449;-84
2024/04/13 02:03:40;;;;;;;5.82;4.18;;;7.60;99.90;;;;;;5446819;26;20005;-84
2024/04/13 02:06:07;;;;;;;9.85;4.50;;;7.60;99.90;;;;;;5445409;26;19995;-84
2024/04/13 02:08:33;;;;;;;9.00;4.07;;;7.40;99.90;;;;;;5447099;26;20464;-85
2024/04/13 02:10:59;;;;;;;7.22;3.38;;;7.40;99.90;;;;;;5447313;26;19991;-84
2024/04/13 02:13:26;;;;;;;4.70;3.90;;;7.20;99.90;;;;;;5437239;26;19998;-84
2024/04/13 02:15:51;;;;;;;5.78;4.00;;;7.30;99.90;;;;;;5447462;26;20006;-84
2024/04/13 02:18:19;;;;;;;8.52;3.90;;;7.20;99.90;;;;;;5444778;26;20002;-82
2024/04/13 02:20:45;;;;;;;8.43;3.92;;;7.20;99.90;;;;;;5447050;26;20002;-83
2024/04/13 02:23:11;;;;;;;6.97;3.80;;;7.20;99.90;;;;;;5446313;26;20100;-83
2024/04/13 02:25:36;;;;;;;4.43;3.55;;;7.00;99.90;;;;;;5446886;26;19998;-81
2024/04/13 02:28:05;;;;;;;7.80;3.50;;;6.90;99.90;;;;;;5446015;26;19999;-82
2024/04/13 02:30:31;;;;;;;5.18;3.65;;;7.00;99.90;;;;;;5403149;26;20010;-83
2024/04/13 02:32:57;;;;;;;6.38;3.28;;;7.00;99.90;;;;;;5445629;26;19999;-79
2024/04/13 02:35:24;;;;;;;4.03;2.72;;;7.00;99.90;;;;;;5446451;26;20025;-84
2024/04/13 02:37:49;;;;;;;5.75;3.28;;;6.90;99.90;;;;;;5447343;26;20528;-83
2024/04/13 02:40:16;;;;;;;4.80;3.70;;;7.00;99.90;;;;;;5445951;26;20018;-83
2024/04/13 02:42:43;;;;;;;5.57;2.90;;;7.00;99.90;;;;;;5423971;26;20004;-83
2024/04/13 02:45:10;;;;;;;4.65;2.53;;;7.00;99.90;;;;;;5446747;26;20013;-81
2024/04/13 02:47:36;;;;;;;4.70;2.42;;;7.00;99.90;;;;;;5421876;26;19995;-83
2024/04/13 02:50:02;;;;;;;3.85;2.92;;;7.00;99.90;;;;;;5425925;26;20004;-83
2024/04/13 02:52:31;;;;;;;9.15;4.47;;;7.00;99.90;;;;;;5441757;26;20413;-82
2024/04/13 02:54:57;;;;;;;7.63;4.63;;;7.20;99.90;;;;;;5446846;26;20680;-80
2024/04/13 02:57:24;;;;;;;8.45;5.10;;;7.40;99.90;;;;;;5445973;26;20069;-83
2024/04/13 02:59:51;;;;;;;8.30;5.80;;;7.50;99.90;;;;;;5446130;26;19999;-83
2024/04/13 03:02:17;;;;;;;7.78;5.32;;;7.50;99.90;;;;;;5430243;26;20035;-81
2024/04/13 03:04:44;;;;;;;9.45;5.63;;;7.60;99.90;;;;;;5430571;26;19995;-82
2024/04/13 03:07:09;;;;;;;8.77;6.40;;;7.70;99.90;;;;;;5447219;26;19995;-82
2024/04/13 03:09:35;;;;;;;8.75;6.18;;;7.70;99.90;;;;;;5447806;26;20671;-83
2024/04/13 03:12:01;;;;;;;8.80;5.70;;;7.70;99.90;;;;;;5447132;26;20460;-83
2024/04/13 03:14:29;;;;;;;13.95;5.63;;;7.60;99.90;;;;;;5446362;26;20079;-84
2024/04/13 03:16:55;;;;;;;9.63;5.10;;;7.40;99.90;;;;;;5422817;26;20039;-83
2024/04/13 03:19:20;;;;;;;12.38;5.15;;;7.40;99.90;;;;;;5428224;26;20022;-83
2024/04/13 03:21:46;;;;;;;11.30;5.13;;;7.30;99.90;;;;;;5440324;26;20486;-85
2024/04/13 03:24:12;;;;;;;9.52;4.82;;;7.30;99.90;;;;;;5446484;26;20040;-86
2024/04/13 03:26:38;;;;;;;10.02;5.10;;;6.90;99.90;;;;;;5446338;26;20010;-84
2024/04/13 03:29:04;;;;;;;5.57;4.32;;;6.70;99.90;;;;;;5447387;26;20522;-84
2024/04/13 03:31:29;;;;;;;7.13;4.40;;;6.60;99.90;;;;;;5449396;26;20002;-85
2024/04/13 03:33:58;;;;;;;6.07;3.72;;;6.40;99.90;;;;;;5449573;26;20003;-85
2024/04/13 03:36:26;;;;;;;4.28;2.60;;;6.50;99.90;;;;;;5447447;26;20031;-84
2024/04/13 03:38:59;;;;;;;2.10;1.88;;;6.60;99.90;;;;;;5450712;26;20006;-84
2024/04/13 03:41:25;;;;;;;14.65;3.65;;;6.70;99.90;;;;;;5450827;26;20080;-83
2024/04/13 03:43:50;;;;;;;33.10;5.93;;;6.80;99.90;;;;;;5456693;26;20006;-83
2024/04/13 03:46:16;;;;;;;14.30;5.90;;;6.90;99.90;;;;;;5459534;26;20007;-83
2024/04/13 03:48:42;;;;;;;7.53;4.90;;;7.10;99.90;;;;;;5450112;26;19994;-84
2024/04/13 03:51:11;;;;;;;3.17;2.88;;;7.00;99.90;;;;;;5449646;26;20579;-83
2024/04/13 03:53:37;;;;;;;3.10;2.80;;;6.70;99.90;;;;;;5447877;26;20009;-83
2024/04/13 03:56:03;;;;;;;3.78;3.38;;;6.60;99.90;;;;;;5448797;26;20010;-83
2024/04/13 03:58:30;;;;;;;6.97;3.85;;;6.40;99.90;;;;;;5449012;26;20344;-83
2024/04/13 04:00:56;;;;;;;7.68;4.22;;;6.50;99.90;;;;;;5449176;26;19995;-84
2024/04/13 04:03:22;;;;;;;5.32;4.20;;;6.60;99.90;;;;;;5447197;26;19999;-84
2024/04/13 04:05:50;;;;;;;7.90;4.40;;;6.60;99.90;;;;;;5448928;26;19994;-83
2024/04/13 04:08:16;;;;;;;13.32;4.97;;;6.50;99.90;;;;;;5442521;26;20011;-84
2024/04/13 04:10:42;;;;;;;10.15;5.07;;;6.70;99.90;;;;;;5430758;26;19994;-83
2024/04/13 04:13:08;;;;;;;10.70;4.97;;;6.80;99.90;;;;;;5448415;26;20005;-83
2024/04/13 04:15:34;;;;;;;8.70;5.00;;;6.70;99.90;;;;;;5449213;26;19995;-82
2024/04/13 04:18:00;;;;;;;6.35;5.03;;;6.80;99.90;;;;;;5448358;26;19995;-84
2024/04/13 04:20:26;;;;;;;9.95;4.95;;;6.70;99.90;;;;;;5448776;26;20014;-83
2024/04/13 04:22:52;;;;;;;8.18;5.20;;;6.70;99.90;;;;;;5449219;26;20343;-84
2024/04/13 04:25:21;;;;;;;11.95;4.80;;;6.70;99.90;;;;;;5436325;26;20003;-76
2024/04/13 04:27:47;;;;;;;6.40;4.53;;;6.70;99.90;;;;;;5451781;26;20009;-78
2024/04/13 04:30:13;;;;;;;13.90;6.47;;;6.50;99.90;;;;;;5449080;26;19998;-78
2024/04/13 04:32:39;;;;;;;13.02;5.50;;;6.60;99.90;;;;;;5448224;26;20010;-77
2024/04/13 04:35:08;;;;;;;12.40;5.00;;;6.50;99.90;;;;;;5448174;26;19999;-78
2024/04/13 04:37:34;;;;;;;7.93;4.45;;;6.40;99.90;;;;;;5448647;26;19999;-78
2024/04/13 04:40:00;;;;;;;6.28;4.20;;;6.20;99.90;;;;;;5448419;26;19995;-78
2024/04/13 04:42:28;;;;;;;9.80;5.38;;;6.20;99.90;;;;;;5447443;26;20010;-78
2024/04/13 04:44:54;;;;;;;9.00;4.60;;;6.30;99.90;;;;;;5442182;26;20390;-78
2024/04/13 04:47:20;;;;;;;11.68;5.75;;;6.40;99.90;;;;;;5447793;26;20010;-77
2024/04/13 04:49:48;;;;;;;16.08;6.60;;;6.60;99.90;;;;;;5434517;26;20011;-77
2024/04/13 04:52:14;;;;;;;12.20;5.30;;;6.70;99.90;;;;;;5423698;26;20003;-77
2024/04/13 04:54:41;;;;;;;12.25;6.07;;;6.60;99.90;;;;;;5455314;26;20014;-78
2024/04/13 04:57:07;;;;;;;16.20;5.85;;;6.60;99.90;;;;;;5443234;26;19999;-78
2024/04/13 04:59:32;;;;;;;9.27;5.72;;;6.60;99.90;;;;;;5449719;26;20006;-79
2024/04/13 05:01:58;;;;;;;11.95;5.97;;;6.50;99.90;;;;;;5430749;26;19996;-77
2024/04/13 05:04:24;;;;;;;10.50;5.82;;;6.60;99.90;;;;;;5429295;26;20358;-78
2024/04/13 05:06:49;;;;;;;12.00;5.93;;;6.60;99.90;;;;;;5446766;26;20071;-82
2024/04/13 05:09:15;;;;;;;11.73;5.32;;;6.70;99.90;;;;;;5446052;26;20067;-78
2024/04/13 05:11:41;;;;;;;11.30;5.00;;;6.50;99.90;;;;;;5445598;26;20023;-81
2024/04/13 05:14:09;;;;;;;8.35;5.10;;;6.50;99.90;;;;;;5437941;26;20562;-81
2024/04/13 05:16:35;;;;;;;7.97;5.25;;;6.40;99.90;;;;;;5424332;26;20017;-82
2024/04/13 05:19:03;;;;;;;7.20;4.93;;;6.40;99.90;;;;;;5445679;26;20003;-80
2024/04/13 05:21:29;;;;;;;7.35;4.45;;;6.50;99.90;;;;;;5446621;26;20453;-81
2024/04/13 05:23:55;;;;;;;7.50;5.03;;;6.50;99.90;;;;;;5446454;26;20043;-84
2024/04/13 05:26:21;;;;;;;8.00;4.47;;;6.50;99.90;;;;;;5446053;26;19999;-81
2024/04/13 05:28:47;;;;;;;11.90;5.45;;;6.60;99.90;;;;;;5445763;26;19999;-81
2024/04/13 05:31:13;;;;;;;11.07;5.70;;;6.70;99.90;;;;;;5444363;26;20010;-80
2024/04/13 05:33:39;;;;;;;15.90;7.78;;;6.70;99.90;;;;;;5409635;26;20304;-80
2024/04/13 05:36:05;;;;;;;36.05;8.63;;;6.90;99.90;;;;;;5444872;26;19999;-80
2024/04/13 05:38:31;;;;;;;58.55;9.82;;;7.00;99.90;;;;;;5444801;26;20009;-76
2024/04/13 05:40:57;;;;;;;24.30;10.13;;;7.20;99.90;;;;;;5444735;26;20017;-78
2024/04/13 05:43:22;;;;;;;27.70;11.00;;;7.20;99.90;;;;;;5439359;26;20010;-77
2024/04/13 05:45:49;;;;;;;25.65;10.70;;;7.30;99.90;;;;;;5436667;26;19996;-78
2024/04/13 05:48:15;;;;;;;24.67;10.35;;;7.30;99.90;;;;;;5431489;26;20060;-76
2024/04/13 05:50:40;;;;;;;24.25;9.75;;;7.50;99.90;;;;;;5438402;26;20409;-77
2024/04/13 05:53:06;;;;;;;22.27;9.80;;;7.60;99.90;;;;;;5444144;26;19998;-77
2024/04/13 05:55:35;;;;;;;23.33;9.98;;;7.70;99.90;;;;;;5446941;26;20072;-78
2024/04/13 05:58:02;;;;;;;14.77;8.43;;;7.70;99.90;;;;;;5440326;26;20419;-77
2024/04/13 06:00:28;;;;;;;11.95;7.25;;;7.90;99.90;;;;;;5447048;26;20487;-79
2024/04/13 06:02:54;;;;;;;11.30;6.93;;;8.10;99.90;;;;;;5446373;26;19998;-78
2024/04/13 06:05:20;;;;;;;15.25;7.90;;;8.30;99.90;;;;;;5412768;26;20492;-76
2024/04/13 06:07:45;;;;;;;17.90;9.07;;;8.40;99.90;;;;;;5399043;26;20073;-77
2024/04/13 06:10:11;;;;;;;14.60;8.32;;;8.40;99.90;;;;;;5430210;26;20075;-77
2024/04/13 06:12:37;;;;;;;9.90;5.97;;;8.60;99.90;;;;;;5443643;26;20792;-77
2024/04/13 06:15:02;;;;;;;10.45;6.72;;;8.70;99.90;;;;;;5420346;26;20007;-77
2024/04/13 06:17:28;;;;;;;10.32;6.38;;;8.70;99.90;;;;;;5443157;26;20010;-77
2024/04/13 06:19:55;;;;;;;11.15;6.70;;;8.80;99.90;;;;;;5429031;26;20460;-77
2024/04/13 06:22:23;;;;;;;11.27;6.95;;;8.90;99.90;;;;;;5409645;26;19991;-78
2024/04/13 06:24:50;;;;;;;10.80;7.05;;;9.00;99.90;;;;;;5410480;26;20005;-77
2024/04/13 06:27:16;;;;;;;10.73;7.05;;;9.10;99.90;;;;;;5438260;26;20009;-76
2024/04/13 06:29:50;;;;;;;11.73;7.68;;;9.20;99.90;;;;;;5442605;26;19995;-77
2024/04/13 06:32:19;;;;;;;12.88;7.32;;;9.20;99.90;;;;;;5399620;26;19995;-76
2024/04/13 06:34:44;;;;;;;15.25;8.48;;;9.20;99.90;;;;;;5415128;26;19999;-77
2024/04/13 06:37:13;;;;;;;13.00;7.60;;;9.30;99.90;;;;;;5412671;26;19999;-76
2024/04/13 06:39:40;;;;;;;16.92;8.00;;;9.30;99.90;;;;;;5410637;26;20015;-77
2024/04/13 06:42:06;;;;;;;14.07;8.20;;;9.40;99.90;;;;;;5393840;26;20010;-77
2024/04/13 06:44:31;;;;;;;14.40;8.23;;;9.40;99.90;;;;;;5411921;26;20003;-77
2024/04/13 06:46:57;;;;;;;18.02;9.02;;;9.50;99.90;;;;;;5403374;26;20000;-77
2024/04/13 06:49:24;;;;;;;11.48;7.85;;;9.50;99.90;;;;;;5397884;26;19999;-81
2024/04/13 06:51:50;;;;;;;12.05;7.60;;;9.60;99.90;;;;;;5406627;26;20665;-79
2024/04/13 06:54:15;;;;;;;11.85;8.05;;;9.80;99.90;;;;;;5417307;26;19999;-79
2024/04/13 06:56:41;;;;;;;12.52;7.55;;;9.70;99.90;;;;;;5410867;26;20010;-81
2024/04/13 06:59:07;;;;;;;14.15;7.95;;;9.80;99.90;;;;;;5428236;26;20030;-82
2024/04/13 07:01:33;;;;;;;11.70;7.60;;;9.90;99.90;;;;;;5435587;26;19995;-80
2024/04/13 07:03:59;;;;;;;17.48;9.15;;;9.90;99.90;;;;;;5431476;26;20646;-81
2024/04/13 07:06:25;;;;;;;16.70;8.38;;;10.10;99.90;;;;;;5401187;26;20018;-80
2024/04/13 07:08:51;;;;;;;13.95;9.15;;;10.30;99.90;;;;;;5413483;26;20019;-78
2024/04/13 07:11:17;;;;;;;13.60;8.23;;;10.60;99.90;;;;;;5417020;26;20009;-78
2024/04/13 07:13:42;;;;;;;15.55;8.45;;;10.60;99.90;;;;;;5379916;26;19999;-79
2024/04/13 07:16:09;;;;;;;15.90;9.48;;;10.90;99.90;;;;;;5403074;26;20393;-78
2024/04/13 07:18:35;;;;;;;16.05;8.75;;;11.00;99.90;;;;;;5405294;26;19995;-81
2024/04/13 07:21:01;;;;;;;12.75;7.82;;;11.20;99.90;;;;;;5411854;26;19999;-80
2024/04/13 07:23:26;;;;;;;10.27;7.40;;;11.40;99.90;;;;;;5411827;26;20007;-80
2024/04/13 07:26:03;;;;;;;9.50;7.30;;;11.70;99.90;;;;;;5412997;26;20036;-81
2024/04/13 07:28:30;;;;;;;10.38;6.93;;;11.80;99.90;;;;;;5383912;26;20434;-81
2024/04/13 07:30:56;;;;;;;9.88;6.95;;;12.20;99.90;;;;;;5373584;26;20053;-82
2024/04/13 07:33:22;;;;;;;8.40;6.00;;;12.40;99.90;;;;;;5390515;26;19996;-82
2024/04/13 07:35:48;;;;;;;11.60;6.32;;;12.70;99.90;;;;;;5395828;26;20012;-82
2024/04/13 07:38:13;;;;;;;10.65;7.10;;;13.00;99.90;;;;;;5411445;26;20410;-82
2024/04/13 07:40:39;;;;;;;11.85;6.13;;;13.00;99.90;;;;;;5413038;26;20019;-81
2024/04/13 07:43:05;;;;;;;9.63;6.00;;;12.90;99.90;;;;;;5411337;26;20000;-83
2024/04/13 07:45:31;;;;;;;11.32;6.95;;;13.20;99.90;;;;;;5404429;26;20380;-79
2024/04/13 07:47:57;;;;;;;13.73;6.50;;;13.00;99.90;;;;;;5412998;26;20011;-79
2024/04/13 07:50:23;;;;;;;10.43;6.55;;;13.20;99.90;;;;;;5405288;26;20054;-78
2024/04/13 07:52:49;;;;;;;10.18;6.93;;;13.20;99.90;;;;;;5421789;26;19996;-82
2024/04/13 07:55:15;;;;;;;10.57;6.65;;;13.40;99.90;;;;;;5414660;26;19995;-81
2024/04/13 07:57:41;;;;;;;8.88;6.65;;;13.60;99.90;;;;;;5420772;26;20035;-80
2024/04/13 08:00:11;;;;;;;9.32;6.47;;;13.50;99.90;;;;;;5417734;26;20011;-81
2024/04/13 08:02:37;;;;;;;10.70;6.57;;;13.60;99.90;;;;;;5406595;26;20004;-75
2024/04/13 08:05:03;;;;;;;13.85;6.63;;;13.60;99.90;;;;;;5436776;26;20014;-80
2024/04/13 08:07:29;;;;;;;14.95;6.32;;;13.90;99.90;;;;;;5441499;26;19990;-81
2024/04/13 08:09:54;;;;;;;13.75;6.95;;;13.80;99.90;;;;;;5440440;26;20033;-81
2024/04/13 08:12:20;;;;;;;10.63;6.50;;;14.10;99.90;;;;;;5413512;26;20007;-78
2024/04/13 08:14:46;;;;;;;8.35;6.35;;;14.10;99.90;;;;;;5428935;26;20003;-81
2024/04/13 08:17:13;;;;;;;11.30;6.40;;;14.20;99.90;;;;;;5444732;26;20006;-82
2024/04/13 08:19:38;;;;;;;15.77;6.70;;;14.50;99.90;;;;;;5445106;26;20044;-80
2024/04/13 08:22:05;;;;;;;14.95;7.15;;;14.60;87.40;;;;;;5411771;26;20016;-83
2024/04/13 08:24:32;;;;;;;11.63;6.03;;;14.80;28.60;;;;;;5441513;26;19998;-80
2024/04/13 08:26:57;;;;;;;13.80;6.00;;;14.50;57.90;;;;;;5442977;26;20523;-80
2024/04/13 08:29:23;;;;;;;8.02;5.63;;;14.70;88.00;;;;;;5442102;26;20121;-80
2024/04/13 08:31:49;;;;;;;9.93;6.55;;;14.70;83.90;;;;;;5442448;26;20069;-80
2024/04/13 08:34:17;;;;;;;10.15;6.30;;;14.80;99.90;;;;;;5442006;26;20103;-80
2024/04/13 08:36:43;;;;;;;9.48;5.85;;;15.00;80.50;;;;;;5442980;26;20003;-84
2024/04/13 08:39:12;;;;;;;9.05;6.15;;;15.10;66.80;;;;;;5442606;26;20009;-82
2024/04/13 08:42:03;;;;;;;8.93;5.68;;;15.40;9.60;;;;;;5408765;26;20629;-78
2024/04/13 08:44:30;;;;;;;8.82;5.45;;;15.70;28.50;;;;;;5442419;26;20013;-82
2024/04/13 08:46:59;;;;;;;15.32;6.10;;;15.70;1.00;;;;;;5443918;26;20015;-79
2024/04/13 08:49:26;;;;;;;13.85;5.63;;;15.80;23.10;;;;;;5444230;26;19991;-82
2024/04/13 08:51:52;;;;;;;9.80;5.57;;;16.30;1.00;;;;;;5445295;26;20608;-81
2024/04/13 08:54:18;;;;;;;12.45;5.88;;;16.40;1.00;;;;;;5444935;26;20006;-80
2024/04/13 08:56:45;;;;;;;8.98;5.72;;;16.60;99.90;;;;;;5429246;26;20000;-82
2024/04/13 08:59:11;;;;;;;10.50;6.03;;;16.90;1.00;;;;;;5438100;26;20014;-83
2024/04/13 09:01:40;;;;;;;8.25;5.75;;;17.20;1.00;;;;;;5443951;26;19999;-82
2024/04/13 09:04:07;;;;;;;13.70;6.28;;;17.30;99.90;;;;;;5407626;26;20007;-81
2024/04/13 09:06:33;;;;;;;14.40;6.38;;;17.40;99.90;;;;;;5413660;26;20006;-81
2024/04/13 09:09:03;;;;;;;13.50;6.55;;;18.00;1.00;;;;;;5446435;26;20018;-79
2024/04/13 09:11:29;;;;;;;9.00;5.20;;;18.00;99.90;;;;;;5444729;26;19999;-81
2024/04/13 09:13:55;;;;;;;13.23;6.03;;;17.90;99.90;;;;;;5445441;26;20002;-79
2024/04/13 09:16:21;;;;;;;9.27;5.57;;;17.90;1.00;;;;;;5448926;26;20013;-83
2024/04/13 09:18:46;;;;;;;6.97;4.88;;;18.30;1.00;;;;;;5421133;26;20333;-82
2024/04/13 09:21:12;;;;;;;9.55;4.28;;;18.60;99.90;;;;;;5445859;26;19998;-80
2024/04/13 09:23:39;;;;;;;8.05;4.20;;;18.90;99.90;;;;;;5448269;26;20546;-79
2024/04/13 09:26:05;;;;;;;9.38;4.43;;;18.90;99.90;;;;;;5447724;26;20014;-81
2024/04/13 09:28:45;;;;;;;9.55;4.32;;;18.90;99.90;;;;;;5441946;26;20070;-80
2024/04/13 09:31:13;;;;;;;8.10;4.55;;;18.80;99.90;;;;;;5425946;26;20002;-80
2024/04/13 09:33:40;;;;;;;9.00;4.18;;;19.30;99.90;;;;;;5444579;26;20043;-80
2024/04/13 09:36:08;;;;;;;9.52;4.00;;;19.50;99.90;;;;;;5443156;26;20003;-80
2024/04/13 09:38:34;;;;;;;11.25;4.35;;;20.10;99.90;;;;;;5444778;26;19994;-80
2024/04/13 09:41:02;;;;;;;5.13;3.90;;;20.60;99.90;;;;;;5444277;26;19994;-80
2024/04/13 09:43:28;;;;;;;8.45;3.20;;;20.40;99.90;;;;;;5444192;26;19998;-80
2024/04/13 09:46:00;;;;;;;6.00;3.05;;;20.10;99.90;;;;;;5444209;26;20063;-80
2024/04/13 09:48:25;;;;;;;5.95;3.58;;;20.00;99.90;;;;;;5443706;26;19999;-77
2024/04/13 09:50:51;;;;;;;9.70;3.58;;;20.00;99.90;;;;;;5443396;26;20003;-77
2024/04/13 09:53:18;;;;;;;6.90;3.30;;;19.90;99.90;;;;;;5441560;26;20005;-77
2024/04/13 09:55:44;;;;;;;5.72;3.13;;;20.30;99.90;;;;;;5445315;26;19997;-76
2024/04/13 09:58:14;;;;;;;3.90;2.38;;;20.90;99.90;;;;;;5444858;26;20467;-78
2024/04/13 10:00:41;;;;;;;6.60;2.38;;;20.30;99.90;;;;;;5446286;26;20006;-78
2024/04/13 10:03:07;;;;;;;7.25;2.80;;;20.20;99.90;;;;;;5444226;26;20005;-75
2024/04/13 10:05:37;;;;;;;4.18;2.17;;;19.80;99.90;;;;;;5445548;26;20414;-78
2024/04/13 10:08:10;;;;;;;3.45;2.00;;;20.30;99.90;;;;;;5447011;26;20006;-78
2024/04/13 10:10:42;;;;;;;6.40;1.83;;;20.30;99.90;;;;;;5414122;26;19991;-78
2024/04/13 10:13:10;;;;;;;6.68;2.25;;;20.90;99.90;;;;;;5446541;26;19991;-78
2024/04/13 10:15:36;;;;;;;8.52;1.95;;;20.60;99.90;;;;;;5446721;26;19995;-79
2024/04/13 10:18:04;;;;;;;5.65;2.30;;;20.60;99.90;;;;;;5445821;26;19995;-76
2024/04/13 10:20:29;;;;;;;2.72;1.50;;;20.70;99.90;;;;;;5420657;26;20064;-76
2024/04/13 10:22:58;;;;;;;7.18;2.72;;;20.60;99.90;;;;;;5425588;26;20011;-77
2024/04/13 10:25:30;;;;;;;4.30;1.40;;;21.20;99.90;;;;;;5420502;26;19995;-77
2024/04/13 10:28:07;;;;;;;1.17;1.08;;;21.60;99.90;;;;;;5445580;26;20006;-78
2024/04/13 10:30:49;;;;;;;3.63;1.65;;;21.90;99.90;;;;;;5427751;26;20009;-78
2024/04/13 15:52:11;;;;;;;2.90;0.50;;;24.50;99.90;;;;;;5417574;26;20007;-84
2024/04/13 15:54:37;;;;;;;3.47;0.50;;;24.30;99.90;;;;;;5396986;26;20296;-83
2024/04/13 15:57:03;;;;;;;1.25;0.50;;;24.10;99.90;;;;;;5347261;26;20015;-84
2024/04/13 15:59:28;;;;;;;2.05;0.40;;;24.10;99.90;;;;;;5407150;26;20344;-83
2024/04/13 16:01:54;;;;;;;0.80;0.45;;;24.30;99.90;;;;;;5410197;26;20093;-86
2024/04/13 16:04:20;;;;;;;4.80;0.65;;;24.30;99.90;;;;;;5410427;26;19999;-83
2024/04/13 16:06:53;;;;;;;1.10;0.50;;;23.60;99.90;;;;;;5370997;26;20004;-82
2024/04/13 16:09:19;;;;;;;6.45;1.20;;;23.60;99.90;;;;;;5405571;26;20035;-85
2024/04/13 16:11:44;;;;;;;4.82;0.73;;;23.80;99.90;;;;;;5408622;26;19995;-85
2024/04/13 16:14:10;;;;;;;2.28;0.52;;;23.90;99.90;;;;;;5409922;26;19996;-84
2024/04/13 16:16:35;;;;;;;2.58;0.50;;;23.80;99.90;;;;;;5408438;26;20011;-82
2024/04/13 16:19:02;;;;;;;1.38;0.57;;;24.10;99.90;;;;;;5409640;26;20044;-80
2024/04/13 16:21:29;;;;;;;1.42;0.30;;;23.80;99.90;;;;;;5410211;26;20007;-83
2024/04/13 16:23:55;;;;;;;2.95;0.57;;;23.70;99.90;;;;;;5411998;26;20018;-82
2024/04/13 16:26:20;;;;;;;1.08;0.35;;;23.70;99.90;;;;;;5396899;26;20686;-80
2024/04/13 16:28:46;;;;;;;0.80;0.40;;;24.00;99.90;;;;;;5410192;26;20369;-82
2024/04/13 16:31:12;;;;;;;2.55;0.40;;;24.00;99.90;;;;;;5410496;26;20014;-83
2024/04/13 16:33:37;;;;;;;3.33;0.40;;;24.10;99.90;;;;;;5405023;26;20487;-80
2024/04/13 16:36:04;;;;;;;4.95;0.60;;;23.90;99.90;;;;;;5389246;26;19999;-81
2024/04/13 16:38:30;;;;;;;2.33;0.35;;;23.80;99.90;;;;;;5410494;26;20000;-83
2024/04/13 16:40:56;;;;;;;1.50;0.50;;;23.60;99.90;;;;;;5410896;26;20073;-84
2024/04/13 16:43:22;;;;;;;4.20;0.90;;;23.50;99.90;;;;;;5405299;26;20030;-82
2024/04/13 16:45:47;;;;;;;1.50;0.50;;;23.50;99.90;;;;;;5410726;26;20007;-81
2024/04/13 16:48:13;;;;;;;2.30;0.40;;;23.40;99.90;;;;;;5362313;26;19996;-82
2024/04/13 16:50:39;;;;;;;2.00;0.40;;;23.50;99.90;;;;;;5400201;26;20018;-82
2024/04/13 16:53:07;;;;;;;0.93;0.30;;;23.70;99.90;;;;;;5392035;26;20008;-86
2024/04/13 16:55:33;;;;;;;1.48;0.40;;;23.50;99.90;;;;;;5403357;26;20510;-80
2024/04/13 16:57:59;;;;;;;2.50;0.50;;;23.50;99.90;;;;;;5401009;26;20000;-82
2024/04/13 17:00:25;;;;;;;0.95;0.45;;;23.30;99.90;;;;;;5391632;26;20071;-85
2024/04/13 17:02:51;;;;;;;1.25;0.40;;;23.30;99.90;;;;;;5400299;26;20023;-83
2024/04/13 17:05:17;;;;;;;0.60;0.30;;;23.40;99.90;;;;;;5399951;26;19995;-86
2024/04/13 17:07:43;;;;;;;4.32;0.40;;;23.10;99.90;;;;;;5408899;26;20068;-83
2024/04/13 17:10:08;;;;;;;2.17;0.55;;;22.70;99.90;;;;;;5404620;26;20003;-81
2024/04/13 17:12:34;;;;;;;1.20;0.50;;;22.40;99.90;;;;;;5392196;26;20077;-85
2024/04/13 17:15:03;;;;;;;1.67;0.50;;;22.00;1.00;;;;;;5410873;26;20003;-85
2024/04/13 17:17:29;;;;;;;1.85;0.52;;;22.30;99.90;;;;;;5399853;26;20004;-84
2024/04/13 17:19:55;;;;;;;1.20;0.60;;;22.10;99.90;;;;;;5410084;26;20003;-85
2024/04/13 17:22:23;;;;;;;1.02;0.65;;;21.80;1.00;;;;;;5407552;26;20345;-81
2024/04/13 17:24:49;;;;;;;1.55;0.68;;;21.30;5.00;;;;;;5398898;26;20032;-85
2024/04/13 17:27:15;;;;;;;3.08;0.60;;;21.20;27.70;;;;;;5409301;26;20003;-85
2024/04/13 17:29:41;;;;;;;2.42;0.50;;;21.00;41.00;;;;;;5409291;26;20023;-82
2024/04/13 17:32:07;;;;;;;3.03;0.52;;;21.00;65.30;;;;;;5408925;26;20073;-86
2024/04/13 17:34:33;;;;;;;3.55;0.70;;;20.90;90.00;;;;;;5406244;26;19995;-84
2024/04/13 17:36:59;;;;;;;1.85;0.70;;;20.70;94.70;;;;;;5407989;26;20011;-84
2024/04/13 17:39:24;;;;;;;3.05;0.60;;;20.70;93.00;;;;;;5399240;26;20080;-83
2024/04/13 17:41:50;;;;;;;4.22;0.65;;;20.70;74.90;;;;;;5408179;26;20344;-75
2024/04/13 17:44:16;;;;;;;1.05;0.82;;;20.80;16.20;;;;;;5407994;26;20039;-75
2024/04/13 17:46:41;;;;;;;3.42;0.68;;;21.00;27.00;;;;;;5403199;26;20084;-76
2024/04/13 17:49:07;;;;;;;2.70;0.68;;;21.00;22.20;;;;;;5405332;26;20014;-76
2024/04/13 17:51:33;;;;;;;2.40;0.73;;;21.20;1.00;;;;;;5413614;26;20012;-75
2024/04/13 17:53:58;;;;;;;1.02;0.70;;;21.00;4.10;;;;;;5432347;26;20098;-75
2024/04/13 17:56:24;;;;;;;0.80;0.57;;;21.10;1.00;;;;;;5431780;26;20005;-75
2024/04/13 17:58:50;;;;;;;1.13;0.70;;;21.10;1.00;;;;;;5422104;26;19991;-76
2024/04/13 18:01:16;;;;;;;4.75;0.60;;;21.20;1.00;;;;;;5435718;26;20440;-76
2024/04/13 18:03:42;;;;;;;1.40;0.43;;;21.10;1.00;;;;;;5440654;26;20002;-75
2024/04/13 18:06:08;;;;;;;2.20;0.65;;;20.80;1.00;;;;;;5391446;26;19996;-76